Carvers, Nevada
Current Conditions -  °F | °C
As of 1:56 AM on Thursday 27 Nov 2014 (Local Time) from KTPH Reporting Station
Clear Clear  
Wind Chill: 31°   Ceiling: Unl
Heat Index: 38°   Visibility: 10mi
Dew Point: 17°   Wind: 10mph
Humidity: 43%   Direction: 350°N
Pressure: 30.41"   Gusts: NA
Location:  38.8172°N, 117.224°W
Report Text: KTPH 270956Z AUTO 35009KT 10SM CLR 03/M08 A3041 RMK AO2 SLP272 T00331083
Loading
Personal Weather Stations






























Interactive Weather Map New forecast layout! Learn more

10-Day Weather Forecast

Advertisements
Track Severe Weather on mobile